createdAt,value
2017-06-12T00:02:09.144Z,99.90
2017-06-12T00:04:36.890Z,99.90
2017-06-12T00:07:04.468Z,99.90
2017-06-12T00:18:12.212Z,99.90
2017-06-12T00:20:41.186Z,99.90
2017-06-12T00:23:09.197Z,99.90
2017-06-12T00:25:38.069Z,99.90
2017-06-12T00:28:06.202Z,99.90
2017-06-12T00:30:34.312Z,99.90
2017-06-12T00:33:02.552Z,99.90
2017-06-12T00:35:30.642Z,99.90
2017-06-12T00:37:58.986Z,99.90
2017-06-12T00:40:26.917Z,99.90
2017-06-12T00:42:55.179Z,99.90
2017-06-12T00:45:23.323Z,99.90
2017-06-12T00:47:52.759Z,99.90
2017-06-12T00:50:20.806Z,99.90
2017-06-12T00:52:48.900Z,99.90
2017-06-12T00:55:17.129Z,99.90
2017-06-12T00:57:45.881Z,99.90
2017-06-12T01:00:14.522Z,99.90
2017-06-12T01:02:44.222Z,99.90
2017-06-12T01:05:13.182Z,99.90
2017-06-12T01:07:42.179Z,99.90
2017-06-12T01:10:10.609Z,99.90
2017-06-12T01:12:39.417Z,99.90
2017-06-12T01:15:07.429Z,99.90
2017-06-12T01:17:35.397Z,99.90
2017-06-12T01:20:04.164Z,99.90
2017-06-12T01:22:32.136Z,99.90
2017-06-12T01:25:00.817Z,99.90
2017-06-12T01:27:28.886Z,99.90
2017-06-12T01:29:59.594Z,99.90
2017-06-12T01:32:28.246Z,99.90
2017-06-12T01:34:56.242Z,99.90
2017-06-12T01:37:24.166Z,99.90
2017-06-12T01:39:52.911Z,99.90
2017-06-12T01:42:21.442Z,99.90
2017-06-12T01:44:50.269Z,99.90
2017-06-12T01:47:18.605Z,99.90
2017-06-12T01:49:46.472Z,99.90
2017-06-12T01:52:15.309Z,99.90
2017-06-12T01:54:43.473Z,99.90
2017-06-12T01:57:11.962Z,99.90
2017-06-12T01:59:40.086Z,99.90
2017-06-12T02:02:08.197Z,99.90
2017-06-12T02:04:36.303Z,99.90
2017-06-12T02:07:04.329Z,99.90
2017-06-12T02:09:32.419Z,99.90
2017-06-12T02:12:01.071Z,99.90
2017-06-12T02:14:29.046Z,99.90
2017-06-12T02:16:57.137Z,99.90
2017-06-12T02:19:25.178Z,99.90
2017-06-12T02:21:53.498Z,99.90
2017-06-12T02:24:22.298Z,99.90
2017-06-12T02:26:50.304Z,99.90
2017-06-12T02:29:21.251Z,99.90
2017-06-12T02:31:50.065Z,99.90
2017-06-12T02:34:20.083Z,99.90
2017-06-12T02:36:48.580Z,99.90
2017-06-12T02:39:16.960Z,99.90
2017-06-12T02:41:45.056Z,99.90
2017-06-12T02:44:13.071Z,99.90
2017-06-12T02:46:41.126Z,99.90
2017-06-12T02:49:08.981Z,99.90
2017-06-12T02:51:38.840Z,99.90
2017-06-12T02:54:06.714Z,99.90
2017-06-12T02:56:34.696Z,99.90
2017-06-12T02:59:03.064Z,99.90
2017-06-12T03:01:31.113Z,99.90
2017-06-12T03:03:59.972Z,99.90
2017-06-12T03:06:29.033Z,99.90
2017-06-12T03:08:57.698Z,99.90
2017-06-12T03:11:25.725Z,99.90
2017-06-12T03:13:55.297Z,99.90
2017-06-12T03:16:23.400Z,99.90
2017-06-12T03:18:51.381Z,99.90
2017-06-12T03:21:19.628Z,99.90
2017-06-12T03:23:47.501Z,99.90
2017-06-12T03:26:16.354Z,99.90
2017-06-12T03:28:44.586Z,99.90
2017-06-12T03:31:13.405Z,99.90
2017-06-12T03:33:41.375Z,99.90
2017-06-12T03:36:09.470Z,99.90
2017-06-12T03:38:37.487Z,99.90
2017-06-12T03:41:05.464Z,99.90
2017-06-12T03:43:34.220Z,99.90
2017-06-12T03:46:02.164Z,99.90
2017-06-12T03:48:31.826Z,99.90
2017-06-12T03:51:00.084Z,99.90
2017-06-12T03:53:28.006Z,99.90
2017-06-12T03:55:58.172Z,99.90
2017-06-12T03:58:26.249Z,99.90
2017-06-12T04:00:54.194Z,99.90
2017-06-12T04:03:23.884Z,99.90
2017-06-12T04:05:51.875Z,99.90
2017-06-12T04:08:20.629Z,99.90
2017-06-12T04:10:48.537Z,99.90
2017-06-12T04:13:16.746Z,99.90
2017-06-12T04:15:45.437Z,99.90
2017-06-12T04:18:13.435Z,99.90
2017-06-12T04:20:41.576Z,99.90
2017-06-12T04:23:09.502Z,99.90
2017-06-12T04:25:37.606Z,99.90
2017-06-12T04:28:23.494Z,99.90
2017-06-12T04:30:52.828Z,99.90
2017-06-12T04:33:20.824Z,99.90
2017-06-12T04:35:49.120Z,99.90
2017-06-12T04:38:17.259Z,99.90
2017-06-12T04:40:45.157Z,99.90
2017-06-12T04:43:27.584Z,99.90
2017-06-12T04:45:56.749Z,99.90
2017-06-12T04:48:24.697Z,99.90
2017-06-12T04:50:53.737Z,99.90
2017-06-12T04:56:17.945Z,99.90
2017-06-12T05:06:58.391Z,99.90
2017-06-12T05:09:40.054Z,99.90
2017-06-12T05:17:54.243Z,99.90
2017-06-12T05:23:32.562Z,99.90
2017-06-12T05:26:05.699Z,99.90
2017-06-12T05:31:26.217Z,99.90
2017-06-12T05:36:42.766Z,99.90
2017-06-12T05:39:11.446Z,99.90
2017-06-12T05:41:46.047Z,99.90
2017-06-12T05:44:16.186Z,99.90
2017-06-12T05:46:51.509Z,99.90
2017-06-12T05:49:25.202Z,99.90
2017-06-12T05:51:57.793Z,99.90
2017-06-12T05:54:36.835Z,99.90
2017-06-12T05:57:10.639Z,99.90
2017-06-12T06:02:23.343Z,99.90
2017-06-12T06:05:05.241Z,99.90
2017-06-12T06:10:27.877Z,99.90
2017-06-12T06:13:09.216Z,99.90
2017-06-12T06:15:42.427Z,99.90
2017-06-12T06:18:15.922Z,99.90
2017-06-12T06:23:38.573Z,99.90
2017-06-12T06:31:23.615Z,99.90
2017-06-12T06:36:29.529Z,99.90
2017-06-12T06:41:50.741Z,99.90
2017-06-12T06:44:29.326Z,99.90
2017-06-12T06:47:04.000Z,99.90
2017-06-12T06:49:34.876Z,99.90
2017-06-12T06:55:01.677Z,99.90
2017-06-12T06:57:42.733Z,99.90
2017-06-12T07:00:15.963Z,99.90
2017-06-12T07:05:27.761Z,99.10
2017-06-12T07:07:57.748Z,98.60
2017-06-12T07:10:26.421Z,98.80
2017-06-12T07:12:57.233Z,99.40
2017-06-12T07:15:38.219Z,99.10
2017-06-12T07:18:08.908Z,98.30
2017-06-12T07:23:15.349Z,97.90
2017-06-12T07:25:45.004Z,97.80
2017-06-12T07:28:14.040Z,98.70
2017-06-12T07:30:43.169Z,97.80
2017-06-12T07:33:12.817Z,97.10
2017-06-12T07:35:44.896Z,96.60
2017-06-12T07:38:17.479Z,96.60
2017-06-12T07:40:53.282Z,95.60
2017-06-12T07:43:25.775Z,95.10
2017-06-12T07:45:53.831Z,95.10
2017-06-12T07:48:22.264Z,95.20
2017-06-12T07:50:49.847Z,95.20
2017-06-12T07:53:17.407Z,94.60
2017-06-12T07:55:45.347Z,94.40
2017-06-12T07:58:12.911Z,95.30
2017-06-12T08:00:40.475Z,93.50
2017-06-12T08:03:08.367Z,92.20
2017-06-12T08:05:36.695Z,91.90
2017-06-12T08:08:04.256Z,91.90
2017-06-12T08:10:32.352Z,91.00
2017-06-12T08:12:59.904Z,91.30
2017-06-12T08:15:27.455Z,91.30
2017-06-12T08:17:55.155Z,90.90
2017-06-12T08:20:22.734Z,86.20
2017-06-12T08:22:50.314Z,88.80
2017-06-12T08:25:18.117Z,90.20
2017-06-12T08:27:45.680Z,87.40
2017-06-12T08:30:14.000Z,86.30
2017-06-12T08:32:41.695Z,85.60
2017-06-12T08:35:09.259Z,87.90
2017-06-12T08:37:36.834Z,85.00
2017-06-12T08:40:04.795Z,82.70
2017-06-12T08:42:32.360Z,80.80
2017-06-12T08:44:59.924Z,81.90
2017-06-12T08:47:27.520Z,82.40
2017-06-12T08:49:55.080Z,82.40
2017-06-12T08:52:22.644Z,83.30
2017-06-12T08:54:50.359Z,82.80
2017-06-12T08:57:17.921Z,82.40
2017-06-12T08:59:45.487Z,81.00
2017-06-12T09:02:13.095Z,84.40
2017-06-12T09:04:40.652Z,83.60
2017-06-12T09:07:08.216Z,85.50
2017-06-12T09:09:36.020Z,85.10
2017-06-12T09:12:03.589Z,84.90
2017-06-12T09:14:31.925Z,83.40
2017-06-12T09:16:59.829Z,83.40
2017-06-12T09:19:28.157Z,81.80
2017-06-12T09:21:55.712Z,81.70
2017-06-12T09:24:23.312Z,82.00
2017-06-12T09:26:50.868Z,81.50
2017-06-12T09:29:18.436Z,82.40
2017-06-12T09:31:46.223Z,80.80
2017-06-12T09:34:14.548Z,80.70
2017-06-12T09:36:42.108Z,80.60
2017-06-12T09:39:09.727Z,81.10
2017-06-12T09:41:37.284Z,80.90
2017-06-12T09:44:04.856Z,80.60
2017-06-12T09:46:32.610Z,81.10
2017-06-12T09:49:00.248Z,80.00
2017-06-12T09:51:27.891Z,78.30
2017-06-12T09:53:56.280Z,79.10
2017-06-12T09:56:23.865Z,79.30
2017-06-12T09:58:51.438Z,78.20
2017-06-12T10:01:19.411Z,78.00
2017-06-12T10:03:46.975Z,78.50
2017-06-12T10:06:14.536Z,78.90
2017-06-12T10:08:42.144Z,79.30
2017-06-12T10:11:09.695Z,80.20
2017-06-12T10:13:37.244Z,82.30
2017-06-12T10:16:05.028Z,88.40
2017-06-12T10:18:32.580Z,88.80
2017-06-12T10:21:00.142Z,89.50
2017-06-12T10:23:28.026Z,90.10
2017-06-12T10:25:56.343Z,90.80
2017-06-12T10:28:23.904Z,90.50
2017-06-12T10:30:51.820Z,90.20
2017-06-12T10:33:19.377Z,87.10
2017-06-12T10:35:47.001Z,86.70
2017-06-12T10:38:14.659Z,86.40
2017-06-12T10:40:42.211Z,88.00
2017-06-12T10:43:09.776Z,85.30
2017-06-12T10:45:37.461Z,86.90
2017-06-12T10:48:06.019Z,84.40
2017-06-12T10:50:33.581Z,84.70
2017-06-12T10:53:01.471Z,85.00
2017-06-12T10:55:29.026Z,83.00
2017-06-12T10:57:56.580Z,84.90
2017-06-12T11:00:24.303Z,82.80
2017-06-12T11:02:51.864Z,82.30
2017-06-12T11:05:19.423Z,84.40
2017-06-12T11:07:47.135Z,84.40
2017-06-12T11:10:14.689Z,85.30
2017-06-12T11:12:42.243Z,84.80
2017-06-12T11:15:09.840Z,86.30
2017-06-12T11:17:38.163Z,89.10
2017-06-12T11:20:05.723Z,88.30
2017-06-12T11:22:39.296Z,91.40
2017-06-12T11:25:07.622Z,96.10
2017-06-12T11:27:35.619Z,96.00
2017-06-12T11:30:03.375Z,96.20
2017-06-12T11:32:30.925Z,97.90
2017-06-12T11:34:58.472Z,98.80
2017-06-12T11:37:26.352Z,97.50
2017-06-12T11:39:54.152Z,96.60
2017-06-12T11:42:21.708Z,96.70
2017-06-12T11:44:49.555Z,95.20
2017-06-12T11:47:17.105Z,94.10
2017-06-12T11:49:44.661Z,93.70
2017-06-12T11:52:12.235Z,93.40
2017-06-12T11:54:40.552Z,92.00
2017-06-12T11:57:08.112Z,92.20
2017-06-12T11:59:36.038Z,91.20
2017-06-12T12:02:03.592Z,90.80
2017-06-12T12:04:31.154Z,91.30
2017-06-12T12:06:58.777Z,91.60
2017-06-12T12:09:26.331Z,90.20
2017-06-12T12:11:53.876Z,89.80
2017-06-12T12:14:21.484Z,88.80
2017-06-12T12:16:49.033Z,86.70
2017-06-12T12:19:16.600Z,87.50
2017-06-12T12:21:44.218Z,86.60
2017-06-12T12:24:11.789Z,86.30
2017-06-12T12:26:39.347Z,86.80
2017-06-12T12:29:07.259Z,85.80
2017-06-12T12:31:34.816Z,85.80
2017-06-12T12:34:02.378Z,85.90
2017-06-12T12:36:30.748Z,84.90
2017-06-12T12:38:58.308Z,84.30
2017-06-12T12:41:25.887Z,81.60
2017-06-12T12:43:53.499Z,83.10
2017-06-12T12:46:22.019Z,84.90
2017-06-12T12:48:49.609Z,83.80
2017-06-12T12:51:17.608Z,85.00
2017-06-12T12:53:45.237Z,85.80
2017-06-12T12:56:13.037Z,86.70
2017-06-12T12:58:40.743Z,87.90
2017-06-12T13:01:08.483Z,89.10
2017-06-12T13:03:36.323Z,90.40
2017-06-12T13:06:04.041Z,91.20
2017-06-12T13:08:31.606Z,92.10
2017-06-12T13:10:59.360Z,91.80
2017-06-12T13:13:27.924Z,90.40
2017-06-12T13:15:55.503Z,90.10
2017-06-12T13:18:23.825Z,91.80
2017-06-12T13:20:51.627Z,91.80
2017-06-12T13:23:19.193Z,92.00
2017-06-12T13:25:46.753Z,92.10
2017-06-12T13:28:15.328Z,94.90
2017-06-12T13:30:42.889Z,94.60
2017-06-12T13:33:10.437Z,95.80
2017-06-12T13:35:38.419Z,97.50
2017-06-12T13:38:05.984Z,99.80
2017-06-12T13:40:33.780Z,99.90
2017-06-12T13:43:01.398Z,99.90
2017-06-12T13:45:28.987Z,99.90
2017-06-12T13:47:56.543Z,99.90
2017-06-12T13:50:24.287Z,99.90
2017-06-12T13:52:51.848Z,99.80
2017-06-12T13:55:19.491Z,99.20
2017-06-12T13:57:47.268Z,98.50
2017-06-12T14:00:14.825Z,97.10
2017-06-12T14:02:42.389Z,96.50
2017-06-12T14:05:10.076Z,96.10
2017-06-12T14:07:37.637Z,95.70
2017-06-12T14:10:05.202Z,95.60
2017-06-12T14:12:33.028Z,95.10
2017-06-12T14:15:00.651Z,94.30
2017-06-12T14:17:28.207Z,94.20
2017-06-12T14:19:56.132Z,93.40
2017-06-12T14:22:24.464Z,93.30
2017-06-12T14:24:52.023Z,93.30
2017-06-12T14:27:19.815Z,92.80
2017-06-12T14:29:47.385Z,91.60
2017-06-12T14:32:15.715Z,92.60
2017-06-12T14:34:43.627Z,92.20
2017-06-12T14:37:12.041Z,91.80
2017-06-12T14:39:39.603Z,91.30
2017-06-12T14:42:07.284Z,92.00
2017-06-12T14:44:34.850Z,92.90
2017-06-12T14:47:02.408Z,92.50
2017-06-12T14:49:30.117Z,93.00
2017-06-12T14:51:58.437Z,92.20
2017-06-12T14:54:25.982Z,92.20
2017-06-12T14:56:53.809Z,92.20
2017-06-12T14:59:22.149Z,91.80
2017-06-12T15:01:49.707Z,91.90
2017-06-12T15:04:17.315Z,92.90
2017-06-12T15:06:45.649Z,93.90
2017-06-12T15:09:13.244Z,93.90
2017-06-12T15:11:41.923Z,93.20
2017-06-12T15:14:09.736Z,92.90
2017-06-12T15:16:37.295Z,92.30
2017-06-12T15:19:05.193Z,91.80
2017-06-12T15:21:32.753Z,91.20
2017-06-12T15:24:00.329Z,91.50
2017-06-12T15:26:28.043Z,91.20
2017-06-12T15:28:55.601Z,91.20
2017-06-12T15:31:23.148Z,91.40
2017-06-12T15:33:50.759Z,90.80
2017-06-12T15:36:18.348Z,90.90
2017-06-12T15:38:45.920Z,91.00
2017-06-12T15:41:13.929Z,91.80
2017-06-12T15:43:41.499Z,92.30
2017-06-12T15:46:09.049Z,92.40
2017-06-12T15:48:36.979Z,92.70
2017-06-12T15:51:05.296Z,93.20
2017-06-12T15:53:32.864Z,93.10
2017-06-12T15:56:00.646Z,93.50
2017-06-12T15:58:28.198Z,93.80
2017-06-12T16:00:55.757Z,94.10
2017-06-12T16:03:23.455Z,94.40
2017-06-12T16:05:51.016Z,94.50
2017-06-12T16:08:18.628Z,94.50
2017-06-12T16:10:46.221Z,94.10
2017-06-12T16:13:13.778Z,94.40
2017-06-12T16:15:41.348Z,94.50
2017-06-12T16:18:10.015Z,94.10
2017-06-12T16:20:37.620Z,94.10
2017-06-12T16:23:05.167Z,94.40
2017-06-12T16:25:32.777Z,94.10
2017-06-12T16:28:00.330Z,93.80
2017-06-12T16:30:27.896Z,93.00
2017-06-12T16:32:55.686Z,93.10
2017-06-12T16:35:24.032Z,93.10
2017-06-12T16:37:51.583Z,93.10
2017-06-12T16:40:19.399Z,93.10
2017-06-12T16:42:47.725Z,93.50
2017-06-12T16:45:15.281Z,93.40
2017-06-12T16:47:43.045Z,93.80
2017-06-12T16:50:10.617Z,94.20
2017-06-12T16:52:38.168Z,94.60
2017-06-12T16:55:05.807Z,94.50
2017-06-12T16:57:33.360Z,94.60
2017-06-12T17:00:00.952Z,94.80
2017-06-12T17:02:28.545Z,94.50
2017-06-12T17:04:56.875Z,94.10
2017-06-12T17:07:24.430Z,94.10
2017-06-12T17:09:52.456Z,93.90
2017-06-12T17:12:20.782Z,93.20
2017-06-12T17:14:48.342Z,93.00
2017-06-12T17:17:16.141Z,93.00
2017-06-12T17:19:43.697Z,92.80
2017-06-12T17:22:11.252Z,92.60
2017-06-12T17:24:38.844Z,92.90
2017-06-12T17:27:07.165Z,93.10
2017-06-12T17:29:34.720Z,93.10
2017-06-12T17:32:02.525Z,93.20
2017-06-12T17:34:30.151Z,93.20
2017-06-12T17:36:57.702Z,93.40
2017-06-12T17:39:25.308Z,93.20
2017-06-12T17:41:52.855Z,93.50
2017-06-12T17:44:20.468Z,92.60
2017-06-12T17:46:48.179Z,92.30
2017-06-12T17:49:15.744Z,92.40
2017-06-12T17:51:43.324Z,92.60
2017-06-12T17:54:11.779Z,92.80
2017-06-12T17:56:39.336Z,92.70
2017-06-12T17:59:06.896Z,92.50
2017-06-12T18:01:34.968Z,92.70
2017-06-12T18:04:03.356Z,92.70
2017-06-12T18:06:30.936Z,92.70
2017-06-12T18:08:59.494Z,93.10
2017-06-12T18:11:27.074Z,93.10
2017-06-12T18:13:54.634Z,93.20
2017-06-12T18:16:22.444Z,93.30
2017-06-12T18:18:50.093Z,93.60
2017-06-12T18:21:17.770Z,93.80
2017-06-12T18:23:45.419Z,94.10
2017-06-12T18:26:13.260Z,94.00
2017-06-12T18:28:40.840Z,94.00
2017-06-12T18:31:08.655Z,94.30
2017-06-12T18:33:36.233Z,94.20
2017-06-12T18:36:04.685Z,95.20
2017-06-12T18:38:32.405Z,95.20
2017-06-12T18:40:59.969Z,95.50
2017-06-12T18:43:29.331Z,95.80
2017-06-12T18:45:58.216Z,99.90
2017-06-12T18:48:26.649Z,99.90
2017-06-12T18:50:54.203Z,99.90
2017-06-12T18:53:21.894Z,99.90
2017-06-12T18:55:50.292Z,99.90
2017-06-12T18:58:17.857Z,99.90
2017-06-12T19:00:46.954Z,99.90
2017-06-12T19:03:14.714Z,99.90
2017-06-12T19:05:42.305Z,99.90
2017-06-12T19:08:10.035Z,99.90
2017-06-12T19:10:38.365Z,99.90
2017-06-12T19:13:06.101Z,99.90
2017-06-12T19:15:34.151Z,99.90
2017-06-12T19:18:02.546Z,99.90
2017-06-12T19:20:31.399Z,99.90
2017-06-12T19:23:00.570Z,99.90
2017-06-12T19:25:28.193Z,99.90
2017-06-12T19:27:56.973Z,99.90
2017-06-12T19:30:25.008Z,99.90
2017-06-12T19:32:52.627Z,99.90
2017-06-12T19:35:20.200Z,99.90
2017-06-12T19:37:47.811Z,99.90
2017-06-12T19:40:15.392Z,99.90
2017-06-12T19:42:44.230Z,99.90
2017-06-12T19:45:14.465Z,99.90
2017-06-12T19:47:42.204Z,99.90
2017-06-12T19:50:09.769Z,99.90
2017-06-12T19:52:37.715Z,99.90
2017-06-12T19:55:05.344Z,99.90
2017-06-12T19:57:33.040Z,99.90
2017-06-12T20:00:01.465Z,99.90
2017-06-12T20:02:29.068Z,99.90
2017-06-12T20:04:56.629Z,99.90
2017-06-12T20:07:24.271Z,99.90
2017-06-12T20:09:52.613Z,99.90
2017-06-12T20:12:21.185Z,99.90
2017-06-12T20:14:49.080Z,99.90
2017-06-12T20:17:16.661Z,99.90
2017-06-12T20:19:44.240Z,99.90
2017-06-12T20:22:12.056Z,99.90
2017-06-12T20:24:39.628Z,99.90
2017-06-12T20:27:07.979Z,99.90
2017-06-12T20:29:35.569Z,99.90
2017-06-12T20:32:04.516Z,99.90
2017-06-12T20:34:33.130Z,99.90
2017-06-12T20:37:00.897Z,99.90
2017-06-12T20:39:29.287Z,99.90
2017-06-12T20:41:57.145Z,99.90
2017-06-12T20:44:27.789Z,99.90
2017-06-12T20:46:55.465Z,99.90
2017-06-12T20:49:23.048Z,99.90
2017-06-12T20:51:50.847Z,99.90
2017-06-12T20:54:22.625Z,99.90
2017-06-12T20:56:50.261Z,99.90
2017-06-12T20:59:18.984Z,99.90
2017-06-12T21:01:46.566Z,99.90
2017-06-12T21:04:14.288Z,99.90
2017-06-12T21:06:43.556Z,99.90
2017-06-12T21:09:11.139Z,99.90
2017-06-12T21:11:39.353Z,99.90
2017-06-12T21:14:06.923Z,99.90
2017-06-12T21:16:34.537Z,99.90
2017-06-12T21:19:02.301Z,99.90
2017-06-12T21:21:29.908Z,99.90
2017-06-12T21:23:57.530Z,99.90
2017-06-12T21:26:25.893Z,99.90
2017-06-12T21:28:53.510Z,99.90
2017-06-12T21:31:21.078Z,99.90
2017-06-12T21:33:48.876Z,99.90
2017-06-12T21:36:16.438Z,99.90
2017-06-12T21:38:44.003Z,99.90
2017-06-12T21:41:11.968Z,99.90
2017-06-12T21:43:39.527Z,99.90
2017-06-12T21:46:07.093Z,99.90
2017-06-12T21:48:35.170Z,99.90
2017-06-12T21:51:03.496Z,99.90
2017-06-12T21:53:31.091Z,99.90
2017-06-12T21:55:58.852Z,99.90
2017-06-12T21:58:26.413Z,99.90
2017-06-12T22:00:53.986Z,99.90
2017-06-12T22:03:21.600Z,99.90
2017-06-12T22:05:49.164Z,99.90
2017-06-12T22:08:16.732Z,99.90
2017-06-12T22:10:44.733Z,99.90
2017-06-12T22:13:12.296Z,99.90
2017-06-12T22:15:40.612Z,99.90
2017-06-12T22:18:08.733Z,99.90
2017-06-12T22:20:36.283Z,99.90
2017-06-12T22:23:03.876Z,99.90
2017-06-12T22:25:32.431Z,99.90
2017-06-12T22:28:00.010Z,99.90
2017-06-12T22:30:27.592Z,99.90
2017-06-12T22:32:55.324Z,99.90
2017-06-12T22:35:22.915Z,99.90
2017-06-12T22:37:50.465Z,99.90
2017-06-12T22:40:18.380Z,99.90
2017-06-12T22:42:45.957Z,99.90
2017-06-12T22:45:13.529Z,99.90
2017-06-12T22:47:42.037Z,99.90
2017-06-12T22:50:09.607Z,99.90
2017-06-12T22:52:37.166Z,99.90
2017-06-12T22:55:04.891Z,99.90
2017-06-12T22:57:32.452Z,99.90
2017-06-12T23:00:00.792Z,99.90
2017-06-12T23:02:28.517Z,99.90
2017-06-12T23:04:56.091Z,99.90
2017-06-12T23:07:23.645Z,99.90
2017-06-12T23:09:51.320Z,99.90
2017-06-12T23:12:18.902Z,99.90
2017-06-12T23:14:46.480Z,99.90
2017-06-12T23:17:14.069Z,99.90
2017-06-12T23:19:42.561Z,99.90
2017-06-12T23:22:10.133Z,99.90
2017-06-12T23:24:37.880Z,99.90
2017-06-12T23:27:05.431Z,99.90
2017-06-12T23:29:33.009Z,99.90
2017-06-12T23:32:00.788Z,99.90
2017-06-12T23:34:28.341Z,99.90
2017-06-12T23:36:56.803Z,99.90
2017-06-12T23:39:24.475Z,99.90
2017-06-12T23:41:52.023Z,99.90
2017-06-12T23:44:19.606Z,99.90
2017-06-12T23:46:47.331Z,99.90
2017-06-12T23:49:15.660Z,99.90
2017-06-12T23:51:43.221Z,99.90
2017-06-12T23:54:10.946Z,99.90
2017-06-12T23:56:38.504Z,99.90
2017-06-12T23:59:06.078Z,99.90
